AirNav   Air Wisconsin Up To $57,000 Bonus
 
 1520 users online  

15IN Bugtown Airport
New Harmony, Indiana, USA

GOING TO NEW HARMONY?


FAA INFORMATION EFFECTIVE 07 NOVEMBER 2019

Location

FAA Identifier: 15IN
Lat/Long: 38-09-02.0000N 087-50-25.0000W
38-09.033333N 087-50.416667W
38.1505556,-87.8402778
(estimated)
Elevation: 464 ft. / 141 m (estimated)
From city: 4 miles E of NEW HARMONY, IN
Time zone: UTC -6 (UTC -5 during Daylight Saving Time)
Zip code: 47633

Airport Operations

Airport use: Private use. Permission required prior to landing
Activation date: 05/2006
Control tower: no
ARTCC: INDIANAPOLIS CENTER
FSS: TERRE HAUTE FLIGHT SERVICE STATION
Attendance: UNATNDD
Segmented circle: no

Airport Communications

WX AWOS-3 at CUL (14 nm W): 118.425 (618-382-3760)
WX ASOS at EVV (16 nm SE): 120.2 (812-436-4681)

Nearby radio navigation aids

VOR radial/distance  VOR name  Freq  Var
PXVr342/13.8POCKET CITY VORTAC113.3003E
SAMr147/23.2SAMSVILLE VOR/DME116.6003E

 
NDB name  Hdg/Dist  Freq  Var  ID
WAYNE COUNTY118/30.125701WFWC ..-. .-- -.-.
OLNEY158/37.527203WOLY --- .-.. -.--

Airport Services

Runway Information

Runway 18/36

Dimensions: 1500 x 75 ft. / 457 x 23 m
Surface: turf
RUNWAY 18  RUNWAY 36
Traffic pattern: leftleft

Airport Ownership and Management from official FAA records

Ownership: Privately-owned
Owner: DAVID TANNER
3701 HWY 68
POSEYVILLE, IN 47633
Phone 812-305-0750
Manager: DAVID TANNER
3701 HWY 68
POSEYVILLE, IN 47633
Phone 812-305-0750

Additional Remarks

FOR CD CTC EVANSVILLE APCH AT 812-436-4690, WHEN APCH CLSD CTC INDIANAPOLIS ARTCC AT 317-247-2411.

Instrument Procedures

There are no published instrument procedures at 15IN.

Some nearby airports with instrument procedures:

KCUL - Carmi Municipal Airport (14 nm W)
KEVV - Evansville Regional Airport (16 nm SE)
KEHR - Henderson City-County Airport (22 nm S)
KAJG - Mount Carmel Municipal Airport (28 nm N)
KFWC - Fairfield Municipal Airport (30 nm NW)
 
Loc | Ops | Rwys | IFR | FBO | Links
Com | Nav | Svcs | Stats | Notes
Area around 15IN (Bugtown Airport)
 
Road maps at: MapQuest Bing Google
 
Aerial photo
No photo
 
Sectional chart

 
Airport distance calculator
Flying to Bugtown Airport? Find the distance to fly.

From to 15IN

Sunrise and sunset
Times for 19-Nov-2019
 Local
(UTC-6)
 Zulu
(UTC)
Morning civil twilight06:0912:09
Sunrise06:3812:38
Sunset16:3622:36
Evening civil twilight17:0423:04

Current date and time
Zulu (UTC)  19-Nov-2019 19:23:43
Local (UTC-6)  19-Nov-2019 13:23:43
 
METAR
KCUL 
14nm W 
191855Z AUTO 29013G16KT 10SM OVC020 10/06 A2982 RMK AO2
KEVV 
16nm E 
191854Z 27005KT 10SM OVC017 09/06 A2981 RMK AO2 RAE09 SLP096 P0000 T00890061
KEHR 
22nm S 
191856Z AUTO 29011KT 10SM OVC019 11/06 A2982 RMK AO2 SLP097 T01060061
KI19 
26nm E 
191856Z AUTO 25004KT 10SM SCT028 08/01 A2982 RMK AO2 T00840012
TAF
KEVV 
16nm E 
191720Z 1918/2018 25010KT P6SM SCT025 BKN050 TEMPO 1918/1920 BKN025 FM192000 30011G19KT P6SM BKN030 FM192300 31008KT P6SM BKN035 FM200300 31003KT P6SM SCT035 FM201500 15004KT P6SM SCT250
NOTAMs
Click for the latest NOTAMs
NOTAMs are issued by the DoD/FAA and will open in a separate window not controlled by AirNav.

 

 
 

Would you like to see your business listed on this page?

 If your business provides an interesting product or service to pilots, flight crews, aircraft, or users of the Bugtown Airport, you should consider listing it here.  To start the listing process, click on the button below
 
Add a business
 

Other Pages about Bugtown Airport

Update a link
 
Copyright © AirNav, LLC. All rights reserved. Privacy Policy  Contact